Terminal Aerodrome Forecast
Issued by NWS Duluth, MN

Home | Current Version | Previous Version | Text Only | Print | Product List | Glossary On
Versions: 1 2 3 4 5 6 7 8 9 10 11 12 13 14 15 16 17 18 19 20 21 22 23 24 25 26 27 28 29 30
853
FTUS43 KDLH 170007 AAA
TAFINL
TAF AMD
KINL 170007Z 1700/1724 10004KT 4SM BR OVC011
      TEMPO 1700/1704 1SM -SN BR OVC008
     FM170500 19004KT 3SM BR BKN007
     FM171100 21004KT 2SM BR BKN006
     FM171400 21004KT P6SM BKN012
     FM171800 23006KT P6SM BKN045=

USA.gov is the U.S. government's official web portal to all federal, state and local government web resources and services.